sensor_id;sensor_type;location;lat;lon;timestamp;P1;durP1;ratioP1;P2;durP2;ratioP2
55172;SDS011;41061;52.822;6.860;2023-02-22T00:02:21;69.30;;;24.77;;
55172;SDS011;41061;52.822;6.860;2023-02-22T00:04:53;63.60;;;25.42;;
55172;SDS011;41061;52.822;6.860;2023-02-22T00:07:19;64.63;;;26.05;;
55172;SDS011;41061;52.822;6.860;2023-02-22T00:09:47;68.10;;;25.80;;
55172;SDS011;41061;52.822;6.860;2023-02-22T00:12:14;71.60;;;26.88;;
55172;SDS011;41061;52.822;6.860;2023-02-22T00:14:40;66.20;;;26.20;;
55172;SDS011;41061;52.822;6.860;2023-02-22T00:17:06;60.38;;;25.75;;
55172;SDS011;41061;52.822;6.860;2023-02-22T00:19:32;65.55;;;25.88;;
55172;SDS011;41061;52.822;6.860;2023-02-22T00:21:58;68.63;;;27.33;;
55172;SDS011;41061;52.822;6.860;2023-02-22T00:24:24;61.15;;;25.08;;
55172;SDS011;41061;52.822;6.860;2023-02-22T00:26:53;58.55;;;25.45;;
55172;SDS011;41061;52.822;6.860;2023-02-22T00:29:20;71.22;;;26.25;;
55172;SDS011;41061;52.822;6.860;2023-02-22T00:31:47;69.90;;;26.80;;
55172;SDS011;41061;52.822;6.860;2023-02-22T00:34:13;61.33;;;25.63;;
55172;SDS011;41061;52.822;6.860;2023-02-22T00:36:48;64.40;;;26.42;;
55172;SDS011;41061;52.822;6.860;2023-02-22T00:39:15;67.53;;;27.25;;
55172;SDS011;41061;52.822;6.860;2023-02-22T00:41:41;61.28;;;25.02;;
55172;SDS011;41061;52.822;6.860;2023-02-22T00:44:07;60.08;;;25.15;;
55172;SDS011;41061;52.822;6.860;2023-02-22T00:46:33;66.38;;;25.50;;
55172;SDS011;41061;52.822;6.860;2023-02-22T00:48:59;57.22;;;24.70;;
55172;SDS011;41061;52.822;6.860;2023-02-22T00:51:25;59.60;;;23.48;;
55172;SDS011;41061;52.822;6.860;2023-02-22T00:53:52;54.83;;;24.67;;
55172;SDS011;41061;52.822;6.860;2023-02-22T00:56:18;56.08;;;23.75;;
55172;SDS011;41061;52.822;6.860;2023-02-22T00:58:45;52.40;;;23.70;;
55172;SDS011;41061;52.822;6.860;2023-02-22T01:01:11;54.38;;;23.30;;
55172;SDS011;41061;52.822;6.860;2023-02-22T01:03:37;51.60;;;23.70;;
55172;SDS011;41061;52.822;6.860;2023-02-22T01:06:05;58.58;;;23.52;;
55172;SDS011;41061;52.822;6.860;2023-02-22T01:08:31;58.38;;;22.17;;
55172;SDS011;41061;52.822;6.860;2023-02-22T01:10:57;55.47;;;24.02;;
55172;SDS011;41061;52.822;6.860;2023-02-22T01:13:24;56.40;;;23.48;;
55172;SDS011;41061;52.822;6.860;2023-02-22T01:15:50;55.17;;;23.90;;
55172;SDS011;41061;52.822;6.860;2023-02-22T01:18:16;58.17;;;22.42;;
55172;SDS011;41061;52.822;6.860;2023-02-22T01:20:42;54.25;;;23.48;;
55172;SDS011;41061;52.822;6.860;2023-02-22T01:23:12;53.35;;;22.65;;
55172;SDS011;41061;52.822;6.860;2023-02-22T01:25:38;55.85;;;24.25;;
55172;SDS011;41061;52.822;6.860;2023-02-22T01:28:05;54.97;;;23.58;;
55172;SDS011;41061;52.822;6.860;2023-02-22T01:30:32;64.40;;;25.40;;
55172;SDS011;41061;52.822;6.860;2023-02-22T01:32:59;62.95;;;25.08;;
55172;SDS011;41061;52.822;6.860;2023-02-22T01:35:27;57.08;;;25.02;;
55172;SDS011;41061;52.822;6.860;2023-02-22T01:37:53;55.63;;;24.98;;
55172;SDS011;41061;52.822;6.860;2023-02-22T01:40:21;64.47;;;25.27;;
55172;SDS011;41061;52.822;6.860;2023-02-22T01:42:51;60.53;;;25.80;;
55172;SDS011;41061;52.822;6.860;2023-02-22T01:45:52;64.68;;;26.15;;
55172;SDS011;41061;52.822;6.860;2023-02-22T01:48:13;66.70;;;26.10;;
55172;SDS011;41061;52.822;6.860;2023-02-22T01:50:40;61.75;;;26.50;;
55172;SDS011;41061;52.822;6.860;2023-02-22T01:53:07;68.55;;;27.63;;
55172;SDS011;41061;52.822;6.860;2023-02-22T01:55:34;67.30;;;26.55;;
55172;SDS011;41061;52.822;6.860;2023-02-22T01:58:00;68.10;;;26.13;;
55172;SDS011;41061;52.822;6.860;2023-02-22T02:00:27;62.47;;;26.35;;
55172;SDS011;41061;52.822;6.860;2023-02-22T02:02:58;68.78;;;26.77;;
55172;SDS011;41061;52.822;6.860;2023-02-22T02:05:26;68.38;;;26.10;;
55172;SDS011;41061;52.822;6.860;2023-02-22T02:07:55;67.85;;;27.13;;
55172;SDS011;41061;52.822;6.860;2023-02-22T02:10:21;72.30;;;27.92;;
55172;SDS011;41061;52.822;6.860;2023-02-22T02:12:49;65.10;;;26.42;;
55172;SDS011;41061;52.822;6.860;2023-02-22T02:15:17;66.18;;;26.27;;
55172;SDS011;41061;52.822;6.860;2023-02-22T02:17:43;61.85;;;26.20;;
55172;SDS011;41061;52.822;6.860;2023-02-22T02:20:15;65.05;;;26.58;;
55172;SDS011;41061;52.822;6.860;2023-02-22T02:22:51;69.03;;;26.60;;
55172;SDS011;41061;52.822;6.860;2023-02-22T02:33:03;64.78;;;27.13;;
55172;SDS011;41061;52.822;6.860;2023-02-22T02:35:34;69.07;;;26.05;;
55172;SDS011;41061;52.822;6.860;2023-02-22T02:40:40;67.38;;;28.00;;
55172;SDS011;41061;52.822;6.860;2023-02-22T02:45:46;68.28;;;26.88;;
55172;SDS011;41061;52.822;6.860;2023-02-22T02:48:14;69.40;;;27.05;;
55172;SDS011;41061;52.822;6.860;2023-02-22T02:50:43;69.43;;;28.67;;
55172;SDS011;41061;52.822;6.860;2023-02-22T02:53:10;76.57;;;28.80;;
55172;SDS011;41061;52.822;6.860;2023-02-22T02:55:37;69.05;;;27.23;;
55172;SDS011;41061;52.822;6.860;2023-02-22T02:58:05;74.93;;;26.15;;
55172;SDS011;41061;52.822;6.860;2023-02-22T03:00:32;67.45;;;27.58;;
55172;SDS011;41061;52.822;6.860;2023-02-22T03:03:08;68.30;;;27.85;;
55172;SDS011;41061;52.822;6.860;2023-02-22T03:10:50;75.13;;;30.38;;
55172;SDS011;41061;52.822;6.860;2023-02-22T03:21:00;77.38;;;30.90;;
55172;SDS011;41061;52.822;6.860;2023-02-22T03:23:34;76.72;;;31.00;;
55172;SDS011;41061;52.822;6.860;2023-02-22T03:26:12;83.65;;;33.22;;
55172;SDS011;41061;52.822;6.860;2023-02-22T03:28:40;93.82;;;35.05;;
55172;SDS011;41061;52.822;6.860;2023-02-22T03:31:09;89.22;;;33.42;;
55172;SDS011;41061;52.822;6.860;2023-02-22T03:33:41;92.75;;;35.78;;
55172;SDS011;41061;52.822;6.860;2023-02-22T03:36:17;82.57;;;34.45;;
55172;SDS011;41061;52.822;6.860;2023-02-22T03:38:45;93.60;;;34.80;;
55172;SDS011;41061;52.822;6.860;2023-02-22T03:41:11;91.85;;;34.85;;
55172;SDS011;41061;52.822;6.860;2023-02-22T03:43:40;96.63;;;37.45;;
55172;SDS011;41061;52.822;6.860;2023-02-22T03:46:08;101.32;;;37.80;;
55172;SDS011;41061;52.822;6.860;2023-02-22T03:48:36;89.50;;;36.50;;
55172;SDS011;41061;52.822;6.860;2023-02-22T03:51:03;104.88;;;39.25;;
55172;SDS011;41061;52.822;6.860;2023-02-22T03:53:29;96.53;;;37.20;;
55172;SDS011;41061;52.822;6.860;2023-02-22T03:55:56;96.78;;;39.28;;
55172;SDS011;41061;52.822;6.860;2023-02-22T03:58:23;96.25;;;38.42;;
55172;SDS011;41061;52.822;6.860;2023-02-22T04:00:52;102.22;;;39.75;;
55172;SDS011;41061;52.822;6.860;2023-02-22T04:03:21;91.97;;;39.40;;
55172;SDS011;41061;52.822;6.860;2023-02-22T04:05:48;92.95;;;38.45;;
55172;SDS011;41061;52.822;6.860;2023-02-22T04:08:14;93.40;;;40.58;;
55172;SDS011;41061;52.822;6.860;2023-02-22T04:10:41;92.40;;;40.13;;
55172;SDS011;41061;52.822;6.860;2023-02-22T04:13:07;95.50;;;41.17;;
55172;SDS011;41061;52.822;6.860;2023-02-22T04:15:34;94.60;;;39.75;;
55172;SDS011;41061;52.822;6.860;2023-02-22T04:18:01;92.82;;;39.47;;
55172;SDS011;41061;52.822;6.860;2023-02-22T04:20:27;95.13;;;42.30;;
55172;SDS011;41061;52.822;6.860;2023-02-22T04:22:53;93.90;;;42.22;;
55172;SDS011;41061;52.822;6.860;2023-02-22T04:25:20;92.80;;;41.90;;
55172;SDS011;41061;52.822;6.860;2023-02-22T04:27:47;101.57;;;42.08;;
55172;SDS011;41061;52.822;6.860;2023-02-22T04:30:15;95.47;;;42.10;;
55172;SDS011;41061;52.822;6.860;2023-02-22T04:32:41;88.30;;;39.08;;
55172;SDS011;41061;52.822;6.860;2023-02-22T04:35:07;88.13;;;38.67;;
55172;SDS011;41061;52.822;6.860;2023-02-22T04:37:33;98.93;;;42.78;;
55172;SDS011;41061;52.822;6.860;2023-02-22T04:40:00;92.30;;;42.70;;
55172;SDS011;41061;52.822;6.860;2023-02-22T04:42:26;91.53;;;39.67;;
55172;SDS011;41061;52.822;6.860;2023-02-22T04:44:52;99.63;;;44.60;;
55172;SDS011;41061;52.822;6.860;2023-02-22T04:47:18;95.28;;;42.90;;
55172;SDS011;41061;52.822;6.860;2023-02-22T04:49:44;93.53;;;41.47;;
55172;SDS011;41061;52.822;6.860;2023-02-22T04:52:10;87.38;;;41.50;;
55172;SDS011;41061;52.822;6.860;2023-02-22T04:54:37;89.95;;;41.75;;
55172;SDS011;41061;52.822;6.860;2023-02-22T04:57:03;91.93;;;42.00;;
55172;SDS011;41061;52.822;6.860;2023-02-22T04:59:29;94.28;;;42.50;;
55172;SDS011;41061;52.822;6.860;2023-02-22T05:01:57;91.90;;;41.88;;
55172;SDS011;41061;52.822;6.860;2023-02-22T05:04:24;94.43;;;41.40;;
55172;SDS011;41061;52.822;6.860;2023-02-22T05:06:51;93.90;;;42.40;;
55172;SDS011;41061;52.822;6.860;2023-02-22T05:09:17;101.72;;;45.08;;
55172;SDS011;41061;52.822;6.860;2023-02-22T05:11:43;102.95;;;44.60;;
55172;SDS011;41061;52.822;6.860;2023-02-22T05:14:10;90.00;;;42.30;;
55172;SDS011;41061;52.822;6.860;2023-02-22T05:16:37;93.45;;;41.38;;
55172;SDS011;41061;52.822;6.860;2023-02-22T05:19:03;100.88;;;44.55;;
55172;SDS011;41061;52.822;6.860;2023-02-22T05:21:29;98.65;;;44.45;;
55172;SDS011;41061;52.822;6.860;2023-02-22T05:23:55;101.82;;;44.00;;
55172;SDS011;41061;52.822;6.860;2023-02-22T05:26:21;102.32;;;44.72;;
55172;SDS011;41061;52.822;6.860;2023-02-22T05:28:48;98.70;;;42.83;;
55172;SDS011;41061;52.822;6.860;2023-02-22T05:31:14;101.38;;;44.90;;
55172;SDS011;41061;52.822;6.860;2023-02-22T05:33:40;102.32;;;46.38;;
55172;SDS011;41061;52.822;6.860;2023-02-22T05:36:06;97.97;;;43.58;;
55172;SDS011;41061;52.822;6.860;2023-02-22T05:38:32;106.55;;;46.50;;
55172;SDS011;41061;52.822;6.860;2023-02-22T05:40:59;111.03;;;47.70;;
55172;SDS011;41061;52.822;6.860;2023-02-22T05:43:25;101.35;;;44.05;;
55172;SDS011;41061;52.822;6.860;2023-02-22T05:45:51;112.22;;;47.28;;
55172;SDS011;41061;52.822;6.860;2023-02-22T05:48:17;106.00;;;45.67;;
55172;SDS011;41061;52.822;6.860;2023-02-22T05:50:43;98.07;;;44.72;;
55172;SDS011;41061;52.822;6.860;2023-02-22T05:53:09;103.63;;;47.38;;
55172;SDS011;41061;52.822;6.860;2023-02-22T05:55:35;108.75;;;46.95;;
55172;SDS011;41061;52.822;6.860;2023-02-22T05:58:01;103.95;;;43.40;;
55172;SDS011;41061;52.822;6.860;2023-02-22T06:00:29;107.88;;;45.38;;
55172;SDS011;41061;52.822;6.860;2023-02-22T06:02:56;116.90;;;46.75;;
55172;SDS011;41061;52.822;6.860;2023-02-22T06:05:23;106.35;;;45.00;;
55172;SDS011;41061;52.822;6.860;2023-02-22T06:07:50;108.93;;;45.03;;
55172;SDS011;41061;52.822;6.860;2023-02-22T06:10:16;115.70;;;48.55;;
55172;SDS011;41061;52.822;6.860;2023-02-22T06:12:42;116.38;;;47.08;;
55172;SDS011;41061;52.822;6.860;2023-02-22T06:15:08;117.60;;;47.35;;
55172;SDS011;41061;52.822;6.860;2023-02-22T06:17:34;112.50;;;46.08;;
55172;SDS011;41061;52.822;6.860;2023-02-22T06:20:01;115.70;;;47.65;;
55172;SDS011;41061;52.822;6.860;2023-02-22T06:22:27;119.90;;;48.50;;
55172;SDS011;41061;52.822;6.860;2023-02-22T06:24:53;118.22;;;46.72;;
55172;SDS011;41061;52.822;6.860;2023-02-22T06:27:19;112.07;;;46.20;;
55172;SDS011;41061;52.822;6.860;2023-02-22T06:29:45;111.88;;;46.97;;
55172;SDS011;41061;52.822;6.860;2023-02-22T06:32:12;114.03;;;46.55;;
55172;SDS011;41061;52.822;6.860;2023-02-22T06:34:38;118.80;;;46.03;;
55172;SDS011;41061;52.822;6.860;2023-02-22T06:37:07;110.03;;;45.90;;
55172;SDS011;41061;52.822;6.860;2023-02-22T06:39:33;109.43;;;45.60;;
55172;SDS011;41061;52.822;6.860;2023-02-22T06:41:59;118.40;;;48.15;;
55172;SDS011;41061;52.822;6.860;2023-02-22T06:44:25;114.40;;;47.30;;
55172;SDS011;41061;52.822;6.860;2023-02-22T06:46:51;116.22;;;47.22;;
55172;SDS011;41061;52.822;6.860;2023-02-22T06:49:17;118.03;;;47.25;;
55172;SDS011;41061;52.822;6.860;2023-02-22T06:51:43;119.72;;;46.33;;
55172;SDS011;41061;52.822;6.860;2023-02-22T06:54:10;118.18;;;46.17;;
55172;SDS011;41061;52.822;6.860;2023-02-22T06:56:36;114.32;;;49.03;;
55172;SDS011;41061;52.822;6.860;2023-02-22T06:59:02;111.70;;;43.33;;
55172;SDS011;41061;52.822;6.860;2023-02-22T07:01:29;108.63;;;43.38;;
55172;SDS011;41061;52.822;6.860;2023-02-22T07:03:55;106.85;;;44.55;;
55172;SDS011;41061;52.822;6.860;2023-02-22T07:06:22;106.10;;;43.92;;
55172;SDS011;41061;52.822;6.860;2023-02-22T07:08:48;105.78;;;44.58;;
55172;SDS011;41061;52.822;6.860;2023-02-22T07:11:14;102.65;;;41.92;;
55172;SDS011;41061;52.822;6.860;2023-02-22T07:13:40;107.07;;;42.35;;
55172;SDS011;41061;52.822;6.860;2023-02-22T07:16:06;105.15;;;42.63;;
55172;SDS011;41061;52.822;6.860;2023-02-22T07:18:32;115.97;;;45.33;;
55172;SDS011;41061;52.822;6.860;2023-02-22T07:20:58;108.47;;;44.55;;
55172;SDS011;41061;52.822;6.860;2023-02-22T07:23:25;106.13;;;43.75;;
55172;SDS011;41061;52.822;6.860;2023-02-22T07:25:51;104.63;;;43.95;;
55172;SDS011;41061;52.822;6.860;2023-02-22T07:28:17;111.50;;;41.72;;
55172;SDS011;41061;52.822;6.860;2023-02-22T07:30:43;106.13;;;42.22;;
55172;SDS011;41061;52.822;6.860;2023-02-22T07:33:10;109.53;;;43.15;;
55172;SDS011;41061;52.822;6.860;2023-02-22T07:35:37;110.55;;;45.05;;
55172;SDS011;41061;52.822;6.860;2023-02-22T07:38:04;115.10;;;44.10;;
55172;SDS011;41061;52.822;6.860;2023-02-22T07:40:32;109.57;;;45.25;;
55172;SDS011;41061;52.822;6.860;2023-02-22T07:43:02;117.07;;;46.10;;
55172;SDS011;41061;52.822;6.860;2023-02-22T07:45:33;122.50;;;46.30;;
55172;SDS011;41061;52.822;6.860;2023-02-22T07:47:59;106.20;;;43.72;;
55172;SDS011;41061;52.822;6.860;2023-02-22T07:50:27;108.85;;;44.45;;
55172;SDS011;41061;52.822;6.860;2023-02-22T07:52:55;108.75;;;45.47;;
55172;SDS011;41061;52.822;6.860;2023-02-22T07:55:22;112.25;;;46.35;;
55172;SDS011;41061;52.822;6.860;2023-02-22T07:57:49;105.57;;;44.70;;
55172;SDS011;41061;52.822;6.860;2023-02-22T08:00:20;110.82;;;44.08;;
55172;SDS011;41061;52.822;6.860;2023-02-22T08:02:47;106.60;;;44.45;;
55172;SDS011;41061;52.822;6.860;2023-02-22T08:05:13;99.72;;;43.65;;
55172;SDS011;41061;52.822;6.860;2023-02-22T08:07:39;102.22;;;42.33;;
55172;SDS011;41061;52.822;6.860;2023-02-22T08:10:07;105.55;;;43.33;;
55172;SDS011;41061;52.822;6.860;2023-02-22T08:12:34;114.15;;;47.47;;
55172;SDS011;41061;52.822;6.860;2023-02-22T08:15:00;116.57;;;45.58;;
55172;SDS011;41061;52.822;6.860;2023-02-22T08:17:26;111.78;;;44.33;;
55172;SDS011;41061;52.822;6.860;2023-02-22T08:19:52;119.97;;;45.13;;
55172;SDS011;41061;52.822;6.860;2023-02-22T08:22:18;120.03;;;47.97;;
55172;SDS011;41061;52.822;6.860;2023-02-22T08:24:45;118.80;;;46.05;;
55172;SDS011;41061;52.822;6.860;2023-02-22T08:27:11;120.00;;;46.22;;
55172;SDS011;41061;52.822;6.860;2023-02-22T08:29:37;118.20;;;46.72;;
55172;SDS011;41061;52.822;6.860;2023-02-22T08:32:03;113.03;;;43.17;;
55172;SDS011;41061;52.822;6.860;2023-02-22T08:34:29;116.07;;;45.80;;
55172;SDS011;41061;52.822;6.860;2023-02-22T08:36:55;125.82;;;45.55;;
55172;SDS011;41061;52.822;6.860;2023-02-22T08:39:21;117.47;;;45.35;;
55172;SDS011;41061;52.822;6.860;2023-02-22T08:41:47;125.55;;;46.80;;
55172;SDS011;41061;52.822;6.860;2023-02-22T08:44:13;126.03;;;46.05;;
55172;SDS011;41061;52.822;6.860;2023-02-22T08:46:39;111.15;;;38.42;;
55172;SDS011;41061;52.822;6.860;2023-02-22T08:49:05;114.18;;;44.47;;
55172;SDS011;41061;52.822;6.860;2023-02-22T08:51:36;119.53;;;45.63;;
55172;SDS011;41061;52.822;6.860;2023-02-22T08:54:02;121.13;;;46.67;;
55172;SDS011;41061;52.822;6.860;2023-02-22T08:56:30;121.18;;;45.05;;
55172;SDS011;41061;52.822;6.860;2023-02-22T08:58:57;121.22;;;42.67;;
55172;SDS011;41061;52.822;6.860;2023-02-22T09:01:23;127.25;;;43.08;;
55172;SDS011;41061;52.822;6.860;2023-02-22T09:03:49;127.03;;;40.75;;
55172;SDS011;41061;52.822;6.860;2023-02-22T09:06:16;129.90;;;42.45;;
55172;SDS011;41061;52.822;6.860;2023-02-22T09:08:43;125.22;;;41.70;;
55172;SDS011;41061;52.822;6.860;2023-02-22T09:11:09;117.57;;;40.88;;
55172;SDS011;41061;52.822;6.860;2023-02-22T09:13:35;111.60;;;38.13;;
55172;SDS011;41061;52.822;6.860;2023-02-22T09:16:01;116.60;;;37.10;;
55172;SDS011;41061;52.822;6.860;2023-02-22T09:18:27;105.90;;;33.92;;
55172;SDS011;41061;52.822;6.860;2023-02-22T09:20:53;111.15;;;34.13;;
55172;SDS011;41061;52.822;6.860;2023-02-22T09:23:19;99.47;;;31.17;;
55172;SDS011;41061;52.822;6.860;2023-02-22T09:25:46;94.93;;;32.72;;
55172;SDS011;41061;52.822;6.860;2023-02-22T09:28:12;105.05;;;33.65;;
55172;SDS011;41061;52.822;6.860;2023-02-22T09:30:39;105.63;;;34.90;;
55172;SDS011;41061;52.822;6.860;2023-02-22T09:33:09;91.80;;;30.48;;
55172;SDS011;41061;52.822;6.860;2023-02-22T09:35:40;99.57;;;33.50;;
55172;SDS011;41061;52.822;6.860;2023-02-22T09:38:07;90.45;;;32.38;;
55172;SDS011;41061;52.822;6.860;2023-02-22T09:40:34;91.28;;;31.65;;
55172;SDS011;41061;52.822;6.860;2023-02-22T09:43:17;94.82;;;32.13;;
55172;SDS011;41061;52.822;6.860;2023-02-22T09:48:24;99.10;;;36.25;;
55172;SDS011;41061;52.822;6.860;2023-02-22T09:50:51;93.53;;;34.58;;
55172;SDS011;41061;52.822;6.860;2023-02-22T09:55:53;104.25;;;34.03;;
55172;SDS011;41061;52.822;6.860;2023-02-22T10:00:47;105.55;;;33.47;;
55172;SDS011;41061;52.822;6.860;2023-02-22T10:05:49;85.10;;;30.58;;
55172;SDS011;41061;52.822;6.860;2023-02-22T10:08:17;97.45;;;32.83;;
55172;SDS011;41061;52.822;6.860;2023-02-22T10:10:45;101.63;;;33.58;;
55172;SDS011;41061;52.822;6.860;2023-02-22T10:13:34;98.90;;;32.08;;
55172;SDS011;41061;52.822;6.860;2023-02-22T10:23:37;96.95;;;31.23;;
55172;SDS011;41061;52.822;6.860;2023-02-22T10:26:17;95.68;;;31.35;;
55172;SDS011;41061;52.822;6.860;2023-02-22T10:28:49;107.30;;;34.03;;
55172;SDS011;41061;52.822;6.860;2023-02-22T10:31:29;109.53;;;35.30;;
55172;SDS011;41061;52.822;6.860;2023-02-22T10:34:02;108.18;;;35.08;;
55172;SDS011;41061;52.822;6.860;2023-02-22T10:36:30;106.32;;;34.00;;
55172;SDS011;41061;52.822;6.860;2023-02-22T10:39:06;99.65;;;32.50;;
55172;SDS011;41061;52.822;6.860;2023-02-22T10:41:40;101.55;;;34.20;;
55172;SDS011;41061;52.822;6.860;2023-02-22T10:44:08;97.03;;;34.13;;
55172;SDS011;41061;52.822;6.860;2023-02-22T10:46:34;103.03;;;34.72;;
55172;SDS011;41061;52.822;6.860;2023-02-22T10:49:03;107.25;;;35.83;;
55172;SDS011;41061;52.822;6.860;2023-02-22T10:51:31;102.32;;;35.83;;
55172;SDS011;41061;52.822;6.860;2023-02-22T10:56:36;103.45;;;36.47;;
55172;SDS011;41061;52.822;6.860;2023-02-22T10:59:11;102.85;;;34.13;;
55172;SDS011;41061;52.822;6.860;2023-02-22T11:01:51;97.55;;;34.15;;
55172;SDS011;41061;52.822;6.860;2023-02-22T11:04:18;88.05;;;33.17;;
55172;SDS011;41061;52.822;6.860;2023-02-22T11:06:49;95.90;;;32.55;;
55172;SDS011;41061;52.822;6.860;2023-02-22T11:09:41;104.95;;;35.42;;
55172;SDS011;41061;52.822;6.860;2023-02-22T11:12:10;94.63;;;33.30;;
55172;SDS011;41061;52.822;6.860;2023-02-22T11:14:41;97.43;;;33.38;;
55172;SDS011;41061;52.822;6.860;2023-02-22T11:17:07;94.53;;;34.08;;
55172;SDS011;41061;52.822;6.860;2023-02-22T11:19:35;91.25;;;32.28;;
55172;SDS011;41061;52.822;6.860;2023-02-22T11:24:28;94.85;;;36.70;;
55172;SDS011;41061;52.822;6.860;2023-02-22T11:26:59;91.78;;;33.72;;
55172;SDS011;41061;52.822;6.860;2023-02-22T11:29:27;105.00;;;36.53;;
55172;SDS011;41061;52.822;6.860;2023-02-22T11:31:56;104.40;;;37.55;;
55172;SDS011;41061;52.822;6.860;2023-02-22T11:36:52;95.28;;;36.10;;
55172;SDS011;41061;52.822;6.860;2023-02-22T11:41:51;80.30;;;31.65;;
55172;SDS011;41061;52.822;6.860;2023-02-22T11:46:49;73.38;;;29.77;;
55172;SDS011;41061;52.822;6.860;2023-02-22T11:49:20;71.88;;;29.90;;
55172;SDS011;41061;52.822;6.860;2023-02-22T11:54:43;75.40;;;32.28;;
55172;SDS011;41061;52.822;6.860;2023-02-22T12:07:55;66.15;;;30.17;;
55172;SDS011;41061;52.822;6.860;2023-02-22T12:11:13;68.95;;;31.95;;
55172;SDS011;41061;52.822;6.860;2023-02-22T12:15:56;66.78;;;28.52;;
55172;SDS011;41061;52.822;6.860;2023-02-22T12:20:51;70.00;;;33.15;;
55172;SDS011;41061;52.822;6.860;2023-02-22T12:23:22;67.68;;;29.73;;
55172;SDS011;41061;52.822;6.860;2023-02-22T12:28:39;66.55;;;30.23;;
55172;SDS011;41061;52.822;6.860;2023-02-22T12:31:19;69.85;;;31.63;;
55172;SDS011;41061;52.822;6.860;2023-02-22T12:39:02;71.40;;;30.00;;
55172;SDS011;41061;52.822;6.860;2023-02-22T12:41:32;73.68;;;31.33;;
55172;SDS011;41061;52.822;6.860;2023-02-22T12:44:06;66.78;;;31.02;;
55172;SDS011;41061;52.822;6.860;2023-02-22T12:46:37;63.22;;;30.98;;
55172;SDS011;41061;52.822;6.860;2023-02-22T12:54:22;72.13;;;33.30;;
55172;SDS011;41061;52.822;6.860;2023-02-22T12:57:03;69.57;;;31.95;;
55172;SDS011;41061;52.822;6.860;2023-02-22T12:59:38;66.70;;;32.92;;
55172;SDS011;41061;52.822;6.860;2023-02-22T13:02:11;63.45;;;31.35;;
55172;SDS011;41061;52.822;6.860;2023-02-22T13:04:40;66.35;;;32.13;;
55172;SDS011;41061;52.822;6.860;2023-02-22T13:07:13;66.25;;;31.25;;
55172;SDS011;41061;52.822;6.860;2023-02-22T13:12:18;69.93;;;33.08;;
55172;SDS011;41061;52.822;6.860;2023-02-22T13:19:51;66.55;;;31.90;;
55172;SDS011;41061;52.822;6.860;2023-02-22T13:25:09;65.70;;;30.73;;
55172;SDS011;41061;52.822;6.860;2023-02-22T13:27:56;69.25;;;31.05;;
55172;SDS011;41061;52.822;6.860;2023-02-22T13:35:34;63.65;;;31.38;;
55172;SDS011;41061;52.822;6.860;2023-02-22T13:45:54;54.15;;;27.23;;
55172;SDS011;41061;52.822;6.860;2023-02-22T13:56:08;51.10;;;27.15;;
55172;SDS011;41061;52.822;6.860;2023-02-22T13:58:46;48.13;;;26.92;;
55172;SDS011;41061;52.822;6.860;2023-02-22T14:01:35;49.78;;;27.48;;
55172;SDS011;41061;52.822;6.860;2023-02-22T14:04:40;48.97;;;25.52;;
55172;SDS011;41061;52.822;6.860;2023-02-22T14:06:47;52.22;;;27.08;;
55172;SDS011;41061;52.822;6.860;2023-02-22T14:09:15;48.70;;;27.13;;
55172;SDS011;41061;52.822;6.860;2023-02-22T14:11:47;50.25;;;27.33;;
55172;SDS011;41061;52.822;6.860;2023-02-22T14:14:18;54.45;;;29.90;;
55172;SDS011;41061;52.822;6.860;2023-02-22T14:17:14;52.58;;;28.02;;
55172;SDS011;41061;52.822;6.860;2023-02-22T14:19:30;45.45;;;24.25;;
55172;SDS011;41061;52.822;6.860;2023-02-22T14:22:00;44.13;;;24.17;;
55172;SDS011;41061;52.822;6.860;2023-02-22T14:24:38;47.88;;;25.48;;
55172;SDS011;41061;52.822;6.860;2023-02-22T14:27:06;41.38;;;24.75;;
55172;SDS011;41061;52.822;6.860;2023-02-22T14:29:33;43.35;;;24.85;;
55172;SDS011;41061;52.822;6.860;2023-02-22T14:42:10;46.17;;;24.98;;
55172;SDS011;41061;52.822;6.860;2023-02-22T14:50:18;44.17;;;25.02;;
55172;SDS011;41061;52.822;6.860;2023-02-22T14:52:54;42.15;;;24.73;;
55172;SDS011;41061;52.822;6.860;2023-02-22T14:55:23;44.78;;;24.50;;
55172;SDS011;41061;52.822;6.860;2023-02-22T14:57:53;44.15;;;25.02;;
55172;SDS011;41061;52.822;6.860;2023-02-22T15:00:42;42.33;;;24.52;;
55172;SDS011;41061;52.822;6.860;2023-02-22T15:06:18;47.42;;;26.55;;
55172;SDS011;41061;52.822;6.860;2023-02-22T15:08:45;43.08;;;24.00;;
55172;SDS011;41061;52.822;6.860;2023-02-22T15:11:24;40.00;;;24.80;;
55172;SDS011;41061;52.822;6.860;2023-02-22T15:13:51;44.35;;;26.38;;
55172;SDS011;41061;52.822;6.860;2023-02-22T15:16:17;41.63;;;24.83;;
55172;SDS011;41061;52.822;6.860;2023-02-22T15:18:45;41.63;;;24.10;;
55172;SDS011;41061;52.822;6.860;2023-02-22T15:21:16;45.03;;;25.30;;
55172;SDS011;41061;52.822;6.860;2023-02-22T15:23:46;43.83;;;25.25;;
55172;SDS011;41061;52.822;6.860;2023-02-22T15:26:16;45.38;;;25.23;;
55172;SDS011;41061;52.822;6.860;2023-02-22T15:28:42;42.05;;;24.85;;
55172;SDS011;41061;52.822;6.860;2023-02-22T15:31:23;42.90;;;25.15;;
55172;SDS011;41061;52.822;6.860;2023-02-22T15:33:50;45.20;;;25.67;;
55172;SDS011;41061;52.822;6.860;2023-02-22T15:36:17;44.75;;;24.90;;
55172;SDS011;41061;52.822;6.860;2023-02-22T15:38:47;45.67;;;26.50;;
55172;SDS011;41061;52.822;6.860;2023-02-22T15:41:31;44.60;;;25.30;;
55172;SDS011;41061;52.822;6.860;2023-02-22T15:46:26;42.60;;;25.55;;
55172;SDS011;41061;52.822;6.860;2023-02-22T15:51:38;45.22;;;25.15;;
55172;SDS011;41061;52.822;6.860;2023-02-22T15:54:04;46.00;;;26.98;;
55172;SDS011;41061;52.822;6.860;2023-02-22T15:56:33;44.40;;;26.85;;
55172;SDS011;41061;52.822;6.860;2023-02-22T16:01:27;48.03;;;26.15;;
55172;SDS011;41061;52.822;6.860;2023-02-22T16:03:57;39.63;;;24.27;;
55172;SDS011;41061;52.822;6.860;2023-02-22T16:06:29;41.38;;;25.58;;
55172;SDS011;41061;52.822;6.860;2023-02-22T16:09:07;46.38;;;26.17;;
55172;SDS011;41061;52.822;6.860;2023-02-22T16:11:37;43.13;;;25.33;;
55172;SDS011;41061;52.822;6.860;2023-02-22T16:17:08;47.47;;;25.70;;
55172;SDS011;41061;52.822;6.860;2023-02-22T16:19:36;47.55;;;25.45;;
55172;SDS011;41061;52.822;6.860;2023-02-22T16:22:04;42.25;;;24.83;;
55172;SDS011;41061;52.822;6.860;2023-02-22T16:24:37;45.45;;;25.08;;
55172;SDS011;41061;52.822;6.860;2023-02-22T16:29:29;41.47;;;24.33;;
55172;SDS011;41061;52.822;6.860;2023-02-22T16:31:55;44.40;;;25.48;;
55172;SDS011;41061;52.822;6.860;2023-02-22T16:34:21;40.85;;;24.83;;
55172;SDS011;41061;52.822;6.860;2023-02-22T16:36:47;37.97;;;23.35;;
55172;SDS011;41061;52.822;6.860;2023-02-22T16:39:25;47.28;;;26.25;;
55172;SDS011;41061;52.822;6.860;2023-02-22T16:41:52;43.65;;;24.08;;
55172;SDS011;41061;52.822;6.860;2023-02-22T16:44:19;43.53;;;25.33;;
55172;SDS011;41061;52.822;6.860;2023-02-22T16:46:47;45.38;;;25.90;;
55172;SDS011;41061;52.822;6.860;2023-02-22T16:49:13;39.78;;;24.05;;
55172;SDS011;41061;52.822;6.860;2023-02-22T16:51:50;46.85;;;24.67;;
55172;SDS011;41061;52.822;6.860;2023-02-22T16:54:30;43.22;;;24.25;;
55172;SDS011;41061;52.822;6.860;2023-02-22T16:56:58;40.78;;;23.75;;